Time;durP1;ratioP1;P1;durP2;ratioP2;P2;SDS_P1;SDS_P2;PMS_P1;PMS_P2;Temp;Humidity;BMP_temperature;BMP_pressure;BME280_temperature;BME280_humidity;BME280_pressure;Samples;Min_cycle;Max_cycle;Signal;HPM_P1;HPM_P2
2021/07/31 00:01:21;;;;;;;5.10;2.75;;;23.70;62.60;;;;;;2199683;57;21086;-66
2021/07/31 00:03:48;;;;;;;4.53;2.47;;;23.70;62.70;;;;;;2225678;57;21134;-69
2021/07/31 00:06:26;;;;;;;6.37;2.90;;;23.70;62.80;;;;;;2289018;56;21853;-67
2021/07/31 00:08:53;;;;;;;4.37;2.87;;;23.70;62.90;;;;;;2347965;56;20995;-67
2021/07/31 00:11:50;;;;;;;4.80;2.65;;;23.70;63.00;;;;;;2213402;57;21206;-67
2021/07/31 00:14:19;;;;;;;5.55;2.75;;;23.70;63.30;;;;;;2215820;57;21566;-69
2021/07/31 00:16:46;;;;;;;5.43;2.95;;;23.70;63.30;;;;;;2221635;57;21014;-69
2021/07/31 00:19:13;;;;;;;4.30;2.55;;;23.60;63.20;;;;;;2229876;57;21138;-68
2021/07/31 00:21:40;;;;;;;5.00;2.75;;;23.70;63.30;;;;;;2431417;56;20973;-66
2021/07/31 00:24:07;;;;;;;5.62;3.40;;;23.60;63.20;;;;;;2222988;57;20990;-68
2021/07/31 00:26:36;;;;;;;5.60;2.90;;;23.60;63.30;;;;;;2269128;56;21045;-67
2021/07/31 00:29:05;;;;;;;4.30;2.55;;;23.60;63.40;;;;;;2210492;57;21796;-68
2021/07/31 00:31:32;;;;;;;5.03;2.87;;;23.60;63.50;;;;;;2283543;56;21055;-68
2021/07/31 00:33:59;;;;;;;4.45;3.20;;;23.50;63.50;;;;;;2226337;57;21527;-66
2021/07/31 00:36:25;;;;;;;4.30;2.87;;;23.50;63.50;;;;;;2225021;57;21019;-67
2021/07/31 00:39:12;;;;;;;4.32;2.67;;;23.50;63.60;;;;;;2227141;57;20971;-66
2021/07/31 00:41:39;;;;;;;4.32;2.65;;;23.50;63.70;;;;;;2438447;56;21067;-66
2021/07/31 00:44:05;;;;;;;3.78;2.33;;;23.50;63.60;;;;;;2225085;57;20983;-65
2021/07/31 00:46:32;;;;;;;4.12;2.55;;;23.50;63.70;;;;;;2436815;56;21019;-66
2021/07/31 00:48:58;;;;;;;3.78;2.50;;;23.50;63.80;;;;;;2285372;56;21276;-69
2021/07/31 00:51:26;;;;;;;4.35;2.50;;;23.50;63.80;;;;;;2439097;56;20991;-69
2021/07/31 00:53:52;;;;;;;4.10;2.45;;;23.50;63.80;;;;;;2209227;57;21863;-66
2021/07/31 00:57:10;;;;;;;4.68;2.60;;;23.50;63.80;;;;;;2431974;56;21593;-66
2021/07/31 00:59:36;;;;;;;4.82;2.67;;;23.50;63.80;;;;;;2203769;57;21034;-67
2021/07/31 01:02:03;;;;;;;3.87;2.40;;;23.50;63.80;;;;;;2280445;56;20962;-66
2021/07/31 01:04:32;;;;;;;4.50;2.35;;;23.40;63.70;;;;;;2225869;57;21043;-68
2021/07/31 01:06:58;;;;;;;4.00;2.33;;;23.40;63.70;;;;;;2225520;57;21014;-66
2021/07/31 01:09:25;;;;;;;3.60;2.10;;;23.40;63.70;;;;;;2231310;57;21022;-69
2021/07/31 01:11:51;;;;;;;3.75;2.30;;;23.40;63.80;;;;;;2225717;57;21499;-65
2021/07/31 01:14:17;;;;;;;4.20;2.28;;;23.40;63.80;;;;;;2227329;57;20975;-66
2021/07/31 01:16:45;;;;;;;4.10;2.40;;;23.40;63.80;;;;;;2229176;57;21030;-65
2021/07/31 01:19:51;;;;;;;3.58;1.95;;;23.40;63.80;;;;;;2225931;57;21881;-69
2021/07/31 01:22:17;;;;;;;3.40;1.83;;;23.40;63.80;;;;;;2216402;57;21862;-67
2021/07/31 01:24:43;;;;;;;3.25;1.90;;;23.40;63.80;;;;;;2226811;57;20991;-65
2021/07/31 01:27:10;;;;;;;3.65;2.10;;;23.40;63.80;;;;;;2224665;57;21051;-67
2021/07/31 01:29:36;;;;;;;4.47;1.83;;;23.40;63.90;;;;;;2215363;57;20996;-67
2021/07/31 01:32:03;;;;;;;4.00;2.22;;;23.40;63.90;;;;;;2229638;56;20995;-69
2021/07/31 01:35:03;;;;;;;4.57;2.12;;;23.40;63.90;;;;;;2225357;57;21079;-66
2021/07/31 01:37:30;;;;;;;3.42;2.03;;;23.40;63.80;;;;;;2200589;57;21027;-66
2021/07/31 01:40:17;;;;;;;3.53;2.10;;;23.30;63.70;;;;;;2223909;57;21900;-68
2021/07/31 01:42:43;;;;;;;4.12;2.12;;;23.40;63.70;;;;;;2196419;58;20971;-67
2021/07/31 01:45:10;;;;;;;3.97;2.45;;;23.30;63.60;;;;;;2228833;57;21491;-67
2021/07/31 01:48:10;;;;;;;3.67;2.35;;;23.30;63.60;;;;;;2216395;57;20966;-67
2021/07/31 01:50:39;;;;;;;3.80;2.10;;;23.20;63.30;;;;;;2199572;57;21041;-66
2021/07/31 01:53:05;;;;;;;4.37;1.80;;;23.20;63.40;;;;;;2231258;57;21023;-67
2021/07/31 01:55:33;;;;;;;4.15;1.85;;;23.20;63.30;;;;;;2243052;56;21011;-69
2021/07/31 01:57:59;;;;;;;3.55;1.77;;;23.20;63.30;;;;;;2383475;57;21004;-68
2021/07/31 02:00:26;;;;;;;3.45;1.87;;;23.10;63.10;;;;;;2365957;56;21075;-65
2021/07/31 02:02:52;;;;;;;2.87;1.50;;;23.10;62.90;;;;;;2222159;57;20951;-67
2021/07/31 02:05:18;;;;;;;4.50;2.20;;;23.10;62.70;;;;;;2233231;57;21084;-67
2021/07/31 02:07:45;;;;;;;3.83;1.85;;;23.00;62.40;;;;;;2212405;56;21026;-68
2021/07/31 02:10:12;;;;;;;4.50;1.80;;;23.00;62.20;;;;;;2222240;57;20956;-68
2021/07/31 02:12:39;;;;;;;3.42;1.60;;;22.90;62.00;;;;;;2219817;57;21085;-68
2021/07/31 02:15:07;;;;;;;4.78;1.50;;;22.90;61.90;;;;;;2225498;57;21015;-67
2021/07/31 02:17:34;;;;;;;3.60;1.33;;;22.90;61.80;;;;;;2228656;56;20987;-67
2021/07/31 02:20:01;;;;;;;2.65;1.12;;;22.80;61.60;;;;;;2232291;57;22351;-66
2021/07/31 02:22:28;;;;;;;2.85;1.15;;;22.70;61.40;;;;;;2225122;57;21002;-66
2021/07/31 02:24:56;;;;;;;3.97;1.60;;;22.70;61.20;;;;;;2438870;56;21059;-68
2021/07/31 02:27:27;;;;;;;4.25;1.40;;;22.60;60.90;;;;;;2211274;57;21045;-66
2021/07/31 02:29:53;;;;;;;2.33;1.02;;;22.60;60.80;;;;;;2227190;57;21070;-67
2021/07/31 02:32:20;;;;;;;2.87;1.10;;;22.50;60.60;;;;;;2226514;57;20947;-68
2021/07/31 02:34:48;;;;;;;3.60;1.27;;;22.50;60.60;;;;;;2219558;57;21024;-67
2021/07/31 02:37:14;;;;;;;2.40;0.93;;;22.40;60.60;;;;;;2277627;56;21976;-66
2021/07/31 02:39:43;;;;;;;3.08;1.20;;;22.30;60.60;;;;;;2226345;57;21023;-67
2021/07/31 02:42:10;;;;;;;2.37;1.12;;;22.30;60.50;;;;;;2222515;57;20982;-67
2021/07/31 02:44:36;;;;;;;2.10;0.88;;;22.20;60.50;;;;;;2229379;57;21007;-68
2021/07/31 02:47:03;;;;;;;2.70;1.00;;;22.10;60.40;;;;;;2227233;57;20962;-66
2021/07/31 02:49:29;;;;;;;2.70;0.93;;;22.10;60.40;;;;;;2193143;57;21092;-68
2021/07/31 02:51:56;;;;;;;1.80;0.90;;;22.00;60.40;;;;;;2199289;57;20987;-67
2021/07/31 02:55:08;;;;;;;3.30;1.00;;;21.90;60.30;;;;;;2207846;57;21560;-66
2021/07/31 02:58:21;;;;;;;3.20;1.00;;;21.80;60.00;;;;;;2222579;57;21751;-65
2021/07/31 03:00:47;;;;;;;3.00;0.88;;;21.70;60.00;;;;;;2225041;57;21007;-67
2021/07/31 03:03:15;;;;;;;3.00;1.23;;;21.60;60.20;;;;;;2226627;57;21011;-68
2021/07/31 03:05:41;;;;;;;3.35;1.10;;;21.60;60.30;;;;;;2227167;57;21844;-67
2021/07/31 03:08:08;;;;;;;2.15;1.00;;;21.50;60.20;;;;;;2226896;57;21051;-67
2021/07/31 03:10:34;;;;;;;2.95;0.85;;;21.40;60.20;;;;;;2221610;57;21092;-66
2021/07/31 03:13:00;;;;;;;1.90;0.77;;;21.30;60.20;;;;;;2419493;56;21031;-68
2021/07/31 03:15:42;;;;;;;2.62;0.95;;;21.30;60.20;;;;;;2227602;57;21168;-66
2021/07/31 03:18:08;;;;;;;2.62;0.82;;;21.30;60.20;;;;;;2225066;57;20982;-68
2021/07/31 03:20:35;;;;;;;1.92;0.77;;;21.10;60.20;;;;;;2211441;57;20967;-68
2021/07/31 03:26:05;;;;;;;2.40;0.80;;;20.90;60.10;;;;;;2249313;57;20944;-66
2021/07/31 03:28:43;;;;;;;3.50;0.77;;;20.80;60.10;;;;;;2432359;56;20986;-67
2021/07/31 03:31:19;;;;;;;2.33;0.68;;;20.80;60.20;;;;;;2225883;57;21047;-66
2021/07/31 03:33:47;;;;;;;1.80;0.68;;;20.70;60.30;;;;;;2431671;56;21017;-68
2021/07/31 03:36:20;;;;;;;2.85;0.70;;;20.60;60.40;;;;;;2187044;57;20925;-67
2021/07/31 03:38:50;;;;;;;2.15;0.70;;;20.60;60.50;;;;;;2199446;57;21503;-67
2021/07/31 03:41:16;;;;;;;1.87;0.60;;;20.50;60.50;;;;;;2229811;57;21094;-67
2021/07/31 03:43:42;;;;;;;2.37;0.80;;;20.50;60.50;;;;;;2227150;57;21824;-67
2021/07/31 03:46:09;;;;;;;1.95;0.70;;;20.40;60.50;;;;;;2229846;57;21137;-66
2021/07/31 03:48:36;;;;;;;2.50;0.60;;;20.30;60.50;;;;;;2225155;57;21038;-66
2021/07/31 03:51:02;;;;;;;3.53;0.90;;;20.30;60.60;;;;;;2205259;60;21092;-65
2021/07/31 03:53:31;;;;;;;3.10;0.85;;;20.30;60.60;;;;;;2199283;57;21017;-67
2021/07/31 03:55:57;;;;;;;2.60;0.80;;;20.20;60.60;;;;;;2224758;57;20982;-68
2021/07/31 03:58:24;;;;;;;1.23;0.52;;;20.20;60.70;;;;;;2226208;57;21793;-66
2021/07/31 04:04:31;;;;;;;2.65;0.90;;;20.10;60.60;;;;;;2435758;56;21399;-68
2021/07/31 04:06:58;;;;;;;2.67;0.80;;;20.00;60.70;;;;;;2227834;57;21897;-67
2021/07/31 04:09:25;;;;;;;1.87;0.80;;;20.00;60.70;;;;;;2212756;60;21978;-66
2021/07/31 04:11:52;;;;;;;2.62;0.85;;;20.00;60.70;;;;;;2221235;57;21114;-68
2021/07/31 04:14:36;;;;;;;2.10;0.70;;;19.90;60.80;;;;;;2438139;56;21455;-66
2021/07/31 04:17:02;;;;;;;1.40;0.70;;;19.90;60.50;;;;;;2406310;56;21888;-65
2021/07/31 04:19:30;;;;;;;2.05;0.60;;;19.80;60.60;;;;;;2224704;57;20967;-66
2021/07/31 04:21:57;;;;;;;1.40;0.60;;;19.80;60.70;;;;;;2230366;57;20998;-67
2021/07/31 04:24:36;;;;;;;2.05;0.60;;;19.80;60.70;;;;;;2222995;57;21889;-68
2021/07/31 04:27:04;;;;;;;2.45;0.75;;;19.70;60.50;;;;;;2226535;57;20991;-69
2021/07/31 04:29:30;;;;;;;2.58;0.90;;;19.70;60.70;;;;;;2225821;57;21039;-66
2021/07/31 04:31:57;;;;;;;2.15;0.73;;;19.70;60.70;;;;;;2210828;57;20977;-67
2021/07/31 04:34:26;;;;;;;2.45;1.00;;;19.60;60.60;;;;;;2233323;57;20995;-67
2021/07/31 04:36:55;;;;;;;1.62;0.70;;;19.50;60.60;;;;;;2216873;57;20992;-66
2021/07/31 04:39:22;;;;;;;2.42;0.70;;;19.50;60.60;;;;;;2435729;56;21500;-67
2021/07/31 04:45:28;;;;;;;1.80;0.57;;;19.50;60.70;;;;;;2428947;56;21824;-66
2021/07/31 04:47:58;;;;;;;2.20;0.80;;;19.40;60.80;;;;;;2225859;57;20959;-66
2021/07/31 04:50:25;;;;;;;2.37;0.70;;;19.40;60.90;;;;;;2232796;57;21035;-67
2021/07/31 04:52:52;;;;;;;2.80;0.80;;;19.40;61.00;;;;;;2226966;57;20955;-67
2021/07/31 04:58:46;;;;;;;2.45;0.70;;;19.30;61.00;;;;;;2435606;56;20982;-67
2021/07/31 05:01:12;;;;;;;2.05;0.75;;;19.30;61.10;;;;;;2209398;57;21587;-66
2021/07/31 05:03:43;;;;;;;2.53;1.00;;;19.30;61.20;;;;;;2425748;56;21001;-65
2021/07/31 05:06:09;;;;;;;2.90;0.85;;;19.20;61.10;;;;;;2226334;57;20992;-67
2021/07/31 05:08:46;;;;;;;2.25;0.95;;;19.20;61.20;;;;;;2220815;57;21026;-67
2021/07/31 05:11:12;;;;;;;2.85;0.90;;;19.20;61.30;;;;;;2229951;57;20981;-68
2021/07/31 05:13:39;;;;;;;3.50;1.10;;;19.20;61.40;;;;;;2381712;56;21021;-67
2021/07/31 05:16:06;;;;;;;1.80;0.80;;;19.20;61.50;;;;;;2437045;56;21027;-66
2021/07/31 05:18:33;;;;;;;2.33;0.90;;;19.20;61.50;;;;;;2437886;56;20950;-66
2021/07/31 05:20:59;;;;;;;1.92;0.80;;;19.20;61.60;;;;;;2220667;57;21401;-68
2021/07/31 05:23:25;;;;;;;3.30;1.20;;;19.20;61.70;;;;;;2262850;56;21416;-66
2021/07/31 05:36:12;;;;;;;2.33;0.80;;;19.30;61.90;;;;;;2306062;56;21048;-68
2021/07/31 05:38:41;;;;;;;1.87;0.73;;;19.30;62.00;;;;;;2221904;57;21175;-67
2021/07/31 05:41:42;;;;;;;2.78;0.82;;;19.30;62.10;;;;;;2220280;57;21420;-67
2021/07/31 05:44:08;;;;;;;5.95;1.02;;;19.40;62.20;;;;;;2219329;57;21044;-67
2021/07/31 05:46:34;;;;;;;4.28;1.02;;;19.40;62.30;;;;;;2234121;57;20991;-66
2021/07/31 05:49:01;;;;;;;1.70;0.70;;;19.40;62.40;;;;;;2213542;57;21076;-67
2021/07/31 05:51:28;;;;;;;2.97;0.70;;;19.50;62.60;;;;;;2426418;56;21054;-68
2021/07/31 05:53:55;;;;;;;3.30;0.80;;;19.50;62.60;;;;;;2223855;57;20966;-67
2021/07/31 05:56:22;;;;;;;1.67;0.60;;;19.50;62.60;;;;;;2231885;57;21061;-68
2021/07/31 05:58:49;;;;;;;2.42;0.82;;;19.60;62.80;;;;;;2225721;57;20991;-66
2021/07/31 06:01:46;;;;;;;1.83;0.73;;;19.60;62.80;;;;;;2212800;57;21563;-66
2021/07/31 06:04:13;;;;;;;2.53;0.80;;;19.70;62.80;;;;;;2217950;57;21912;-66
2021/07/31 06:06:39;;;;;;;2.42;0.65;;;19.80;63.00;;;;;;2226850;57;21062;-68
2021/07/31 06:09:06;;;;;;;1.70;0.57;;;19.80;63.10;;;;;;2225687;57;21082;-67
2021/07/31 06:11:32;;;;;;;2.72;1.00;;;19.90;63.20;;;;;;2226706;57;21051;-66
2021/07/31 06:13:59;;;;;;;3.45;0.80;;;20.00;63.30;;;;;;2307549;56;21013;-67
2021/07/31 06:16:27;;;;;;;2.10;0.90;;;20.00;63.40;;;;;;2229086;57;21892;-67
2021/07/31 06:22:21;;;;;;;1.60;0.60;;;20.20;63.50;;;;;;2402521;56;21069;-68
2021/07/31 06:24:47;;;;;;;2.15;0.75;;;20.30;63.60;;;;;;2401014;56;21842;-67
2021/07/31 06:27:14;;;;;;;2.10;0.85;;;20.30;63.60;;;;;;2231238;57;21473;-67
2021/07/31 06:29:41;;;;;;;2.97;1.00;;;20.50;63.80;;;;;;2223258;57;21888;-67
2021/07/31 06:32:07;;;;;;;4.55;1.20;;;20.50;63.80;;;;;;2231739;57;21007;-66
2021/07/31 06:34:34;;;;;;;3.30;1.37;;;20.60;63.90;;;;;;2199527;58;21004;-68
2021/07/31 06:37:00;;;;;;;2.78;1.05;;;20.70;63.90;;;;;;2220288;57;21070;-68
2021/07/31 06:40:13;;;;;;;2.97;1.00;;;20.80;64.00;;;;;;2218936;57;21531;-66
2021/07/31 06:42:39;;;;;;;2.97;1.10;;;21.00;63.70;;;;;;2202992;57;21550;-66
2021/07/31 06:45:07;;;;;;;4.10;1.40;;;21.10;63.90;;;;;;2220795;57;21884;-68
2021/07/31 06:47:35;;;;;;;4.15;1.80;;;21.20;63.70;;;;;;2212971;57;21015;-66
2021/07/31 06:50:09;;;;;;;4.20;1.70;;;21.20;63.60;;;;;;2438883;56;20975;-69
2021/07/31 06:52:37;;;;;;;3.17;1.12;;;21.30;63.70;;;;;;2404431;56;21077;-68
2021/07/31 06:55:05;;;;;;;3.22;1.27;;;21.40;63.60;;;;;;2229656;57;21019;-66
2021/07/31 06:57:32;;;;;;;2.95;1.30;;;21.60;63.30;;;;;;2223912;57;21106;-69
2021/07/31 07:00:47;;;;;;;4.80;1.10;;;21.70;63.10;;;;;;2192108;57;21052;-69
2021/07/31 07:06:55;;;;;;;4.25;0.95;;;21.90;62.10;;;;;;2213341;57;21018;-66
2021/07/31 07:09:22;;;;;;;3.78;1.08;;;22.00;62.70;;;;;;2225773;57;20994;-67
2021/07/31 07:11:48;;;;;;;3.37;1.10;;;22.10;62.50;;;;;;2221102;57;20978;-69
2021/07/31 07:14:14;;;;;;;4.45;1.23;;;22.20;62.40;;;;;;2439011;56;21580;-68
2021/07/31 07:16:41;;;;;;;3.35;1.25;;;22.30;62.10;;;;;;2216700;57;21446;-67
2021/07/31 07:19:42;;;;;;;2.62;0.98;;;22.40;62.10;;;;;;2222961;57;20983;-66
2021/07/31 07:22:10;;;;;;;5.12;1.20;;;22.60;61.40;;;;;;2434826;56;20987;-69
2021/07/31 07:24:37;;;;;;;3.85;1.30;;;22.60;61.80;;;;;;2227967;57;21129;-69
2021/07/31 07:27:03;;;;;;;3.45;1.15;;;22.80;61.90;;;;;;2217318;57;20977;-70
2021/07/31 07:29:29;;;;;;;3.47;1.40;;;22.90;62.10;;;;;;2336583;56;22053;-68
2021/07/31 07:31:56;;;;;;;4.25;1.50;;;23.00;62.10;;;;;;2227177;57;20978;-66
2021/07/31 07:34:22;;;;;;;2.90;1.08;;;23.20;62.00;;;;;;2228600;57;20991;-67
2021/07/31 07:36:49;;;;;;;3.25;1.17;;;23.40;62.50;;;;;;2224163;57;20982;-69
2021/07/31 07:39:18;;;;;;;2.90;1.25;;;23.60;62.40;;;;;;2281718;56;21111;-67
2021/07/31 07:41:44;;;;;;;4.05;1.33;;;23.90;62.20;;;;;;2221951;57;21179;-69
2021/07/31 07:44:10;;;;;;;3.47;1.10;;;24.10;61.40;;;;;;2228281;57;21051;-68
2021/07/31 07:46:38;;;;;;;2.62;1.02;;;24.20;60.20;;;;;;2229337;57;21035;-69
2021/07/31 07:49:12;;;;;;;4.93;1.15;;;24.30;59.80;;;;;;2201299;57;21984;-69
2021/07/31 07:51:39;;;;;;;2.35;1.00;;;24.40;59.50;;;;;;2265684;56;21167;-69
2021/07/31 07:54:06;;;;;;;2.67;0.88;;;24.40;59.70;;;;;;2199281;57;21069;-68
2021/07/31 07:56:32;;;;;;;2.10;0.90;;;24.40;59.40;;;;;;2228360;57;21011;-69
2021/07/31 07:59:00;;;;;;;2.75;1.17;;;24.50;59.40;;;;;;2222082;57;21106;-67
2021/07/31 08:01:38;;;;;;;2.05;0.73;;;24.50;59.20;;;;;;2196402;57;21039;-67
2021/07/31 08:04:06;;;;;;;6.62;1.42;;;24.60;58.90;;;;;;2190599;57;20978;-69
2021/07/31 08:06:32;;;;;;;1.52;0.70;;;24.60;59.20;;;;;;2228432;57;20992;-77
2021/07/31 08:08:58;;;;;;;2.67;0.95;;;24.60;59.10;;;;;;2252928;56;21071;-69
2021/07/31 08:11:25;;;;;;;2.92;0.90;;;24.60;58.70;;;;;;2196976;57;20972;-67
2021/07/31 08:13:51;;;;;;;3.03;0.90;;;24.70;58.60;;;;;;2244247;57;20991;-69
2021/07/31 08:16:22;;;;;;;3.25;1.30;;;24.70;58.40;;;;;;2225484;57;21059;-70
2021/07/31 08:18:48;;;;;;;2.70;0.80;;;24.80;58.00;;;;;;2213237;57;21059;-68
2021/07/31 08:21:20;;;;;;;2.53;0.90;;;24.80;57.80;;;;;;2224667;57;21091;-75
2021/07/31 08:23:47;;;;;;;2.85;1.02;;;24.80;58.00;;;;;;2271144;56;21071;-73
2021/07/31 08:26:16;;;;;;;3.72;1.15;;;24.80;58.00;;;;;;2226197;57;21010;-74
2021/07/31 08:28:42;;;;;;;5.70;1.40;;;24.80;56.80;;;;;;2365177;56;20963;-74
2021/07/31 08:31:12;;;;;;;2.62;1.00;;;24.80;56.00;;;;;;2267773;56;20972;-75
2021/07/31 08:33:39;;;;;;;3.72;1.30;;;24.90;55.70;;;;;;2332458;56;21085;-71
2021/07/31 08:36:48;;;;;;;4.28;1.12;;;24.80;55.90;;;;;;2217611;57;21035;-74
2021/07/31 08:39:14;;;;;;;2.87;0.90;;;24.90;55.50;;;;;;2231283;57;20985;-76
2021/07/31 08:41:44;;;;;;;2.35;0.85;;;24.90;56.40;;;;;;2279943;56;20991;-76
2021/07/31 08:44:11;;;;;;;2.45;0.98;;;24.90;56.50;;;;;;2241725;56;20961;-71
2021/07/31 08:46:37;;;;;;;3.85;1.23;;;24.90;56.60;;;;;;2275106;56;21061;-70
2021/07/31 08:49:04;;;;;;;2.30;0.95;;;25.00;56.40;;;;;;2288994;56;20979;-71
2021/07/31 08:51:30;;;;;;;4.22;1.25;;;25.00;56.00;;;;;;2222854;57;21797;-69
2021/07/31 08:54:02;;;;;;;2.70;1.00;;;25.00;55.70;;;;;;2226399;56;20928;-69
2021/07/31 08:56:29;;;;;;;3.08;1.20;;;25.10;55.40;;;;;;2220287;57;21055;-71
2021/07/31 08:58:59;;;;;;;2.65;1.10;;;25.10;55.50;;;;;;2222087;57;21857;-71
2021/07/31 09:01:26;;;;;;;2.50;0.98;;;25.10;55.30;;;;;;2378312;56;21084;-71
2021/07/31 09:03:55;;;;;;;3.60;1.10;;;25.10;55.50;;;;;;2256319;56;20991;-69
2021/07/31 09:06:30;;;;;;;3.47;1.10;;;25.20;55.60;;;;;;2220720;57;20970;-72
2021/07/31 09:08:57;;;;;;;3.15;1.00;;;25.20;54.80;;;;;;2244959;56;21055;-72
2021/07/31 09:11:25;;;;;;;2.22;0.93;;;25.20;55.30;;;;;;2223053;57;20975;-72
2021/07/31 09:14:15;;;;;;;3.87;0.93;;;25.30;55.40;;;;;;2272824;56;20962;-72
2021/07/31 09:16:42;;;;;;;4.10;1.25;;;25.40;54.40;;;;;;2213129;57;21106;-66
2021/07/31 09:19:11;;;;;;;4.72;1.35;;;25.40;54.40;;;;;;2222542;57;20951;-68
2021/07/31 09:21:37;;;;;;;2.75;1.00;;;25.40;54.50;;;;;;2225532;57;21038;-75
2021/07/31 09:24:27;;;;;;;2.10;0.88;;;25.40;54.40;;;;;;2274274;56;20963;-69
2021/07/31 09:26:55;;;;;;;2.50;0.82;;;25.40;53.50;;;;;;2437700;56;20983;-68
2021/07/31 09:29:36;;;;;;;4.05;0.93;;;25.40;54.30;;;;;;2223854;57;21003;-72
2021/07/31 09:32:06;;;;;;;2.97;0.90;;;25.40;53.30;;;;;;2220061;57;21019;-75
2021/07/31 09:34:54;;;;;;;3.67;1.00;;;25.40;54.00;;;;;;2261503;56;21009;-70
2021/07/31 09:37:24;;;;;;;2.20;0.80;;;25.40;53.80;;;;;;2214607;57;21079;-69
2021/07/31 09:40:04;;;;;;;3.53;0.90;;;25.40;54.20;;;;;;2375244;56;21027;-70
2021/07/31 09:42:44;;;;;;;2.22;0.70;;;25.50;53.70;;;;;;2242728;57;20982;-73
2021/07/31 09:45:13;;;;;;;3.22;0.80;;;25.50;53.10;;;;;;2213796;57;20962;-77
2021/07/31 09:48:04;;;;;;;4.35;1.20;;;25.60;53.80;;;;;;2228030;57;22424;-72
2021/07/31 09:50:44;;;;;;;2.87;0.80;;;25.70;52.90;;;;;;2220864;56;21696;-74
2021/07/31 09:53:12;;;;;;;2.92;1.00;;;25.70;52.70;;;;;;2209778;57;21461;-73
2021/07/31 09:55:58;;;;;;;2.75;0.88;;;25.80;52.70;;;;;;2223343;57;21386;-70
2021/07/31 09:58:25;;;;;;;3.30;0.93;;;25.80;51.50;;;;;;2219299;57;20963;-71
2021/07/31 10:00:54;;;;;;;3.08;1.02;;;25.90;52.20;;;;;;2364766;56;20978;-73
2021/07/31 10:03:20;;;;;;;2.62;0.90;;;25.90;51.90;;;;;;2221399;57;20992;-73
2021/07/31 10:06:23;;;;;;;4.15;0.80;;;25.90;51.50;;;;;;2431622;56;21042;-72
2021/07/31 10:08:50;;;;;;;2.53;0.70;;;26.00;51.20;;;;;;2216317;57;21840;-72
2021/07/31 10:11:17;;;;;;;2.55;0.85;;;26.00;52.10;;;;;;2225895;57;21038;-71
2021/07/31 10:13:44;;;;;;;3.08;1.10;;;26.10;51.80;;;;;;2217999;57;21101;-73
2021/07/31 10:16:10;;;;;;;5.45;0.98;;;26.20;51.70;;;;;;2256614;56;21017;-71
2021/07/31 10:18:37;;;;;;;2.35;0.90;;;26.20;51.60;;;;;;2218023;57;21050;-70
2021/07/31 10:21:05;;;;;;;2.72;1.00;;;26.30;51.50;;;;;;2273914;56;20959;-73
2021/07/31 10:24:22;;;;;;;2.30;0.80;;;26.30;51.50;;;;;;2224762;57;20987;-70
2021/07/31 10:27:21;;;;;;;2.08;0.70;;;26.40;50.40;;;;;;2438222;56;21006;-73
2021/07/31 10:29:50;;;;;;;1.40;0.50;;;26.40;50.30;;;;;;2218659;57;20962;-74
2021/07/31 10:32:35;;;;;;;2.00;0.70;;;26.40;51.00;;;;;;2205284;57;20990;-69
2021/07/31 10:35:22;;;;;;;3.00;0.80;;;26.40;49.80;;;;;;2200090;57;20999;-74
2021/07/31 10:37:48;;;;;;;2.30;0.70;;;26.40;50.20;;;;;;2340377;56;21065;-67
2021/07/31 10:42:06;;;;;;;1.55;0.55;;;26.40;50.80;;;;;;2254605;56;20995;-69
2021/07/31 10:44:35;;;;;;;3.45;0.70;;;26.40;50.30;;;;;;2434167;56;20991;-66
2021/07/31 10:47:40;;;;;;;1.52;0.50;;;26.40;51.20;;;;;;2223103;57;20978;-67
2021/07/31 10:56:55;;;;;;;2.35;0.70;;;26.50;50.60;;;;;;2357331;56;21059;-68
2021/07/31 10:59:23;;;;;;;1.37;0.60;;;26.70;50.50;;;;;;2321914;56;21087;-68
2021/07/31 11:01:51;;;;;;;2.45;0.80;;;26.70;51.10;;;;;;2417833;56;21712;-68
2021/07/31 11:04:54;;;;;;;2.17;0.80;;;26.80;50.90;;;;;;2218872;57;21009;-70
2021/07/31 11:07:25;;;;;;;1.98;0.60;;;26.90;50.00;;;;;;2441296;56;21058;-71
2021/07/31 11:10:28;;;;;;;2.93;1.00;;;26.90;50.70;;;;;;2216001;57;21034;-72
2021/07/31 11:12:55;;;;;;;3.15;1.00;;;27.00;49.90;;;;;;2385124;56;21072;-71
2021/07/31 11:15:23;;;;;;;2.95;0.90;;;27.00;49.10;;;;;;2441713;56;21439;-72
2021/07/31 11:18:01;;;;;;;3.10;0.90;;;27.10;49.30;;;;;;2395753;56;20936;-71
2021/07/31 11:20:32;;;;;;;2.50;0.80;;;27.10;48.60;;;;;;2213946;57;21057;-69
2021/07/31 11:23:03;;;;;;;3.65;0.80;;;27.10;49.30;;;;;;2365654;56;20950;-69
2021/07/31 11:29:44;;;;;;;3.60;0.90;;;27.20;48.30;;;;;;2215149;57;20991;-73
2021/07/31 11:32:59;;;;;;;3.17;0.93;;;27.20;47.40;;;;;;2196733;57;21044;-71
2021/07/31 11:38:53;;;;;;;3.17;0.70;;;27.30;47.60;;;;;;2269749;57;21110;-70
2021/07/31 11:41:19;;;;;;;2.85;0.80;;;27.30;48.90;;;;;;2229455;56;21936;-73
2021/07/31 11:43:50;;;;;;;2.85;0.70;;;27.30;48.70;;;;;;2412693;56;21160;-70
2021/07/31 11:46:49;;;;;;;4.20;0.70;;;27.30;48.60;;;;;;2226417;57;20971;-69
2021/07/31 11:50:17;;;;;;;2.80;0.73;;;27.40;48.30;;;;;;2246060;56;20991;-73
2021/07/31 11:52:43;;;;;;;2.45;0.70;;;27.30;48.20;;;;;;2223607;57;21093;-78
2021/07/31 11:55:10;;;;;;;3.25;0.85;;;27.40;49.20;;;;;;2231936;56;21015;-73
2021/07/31 11:57:36;;;;;;;2.00;0.65;;;27.50;49.10;;;;;;2213683;57;21049;-72
2021/07/31 12:00:03;;;;;;;4.07;0.82;;;27.50;48.90;;;;;;2210326;57;22137;-70
2021/07/31 12:02:47;;;;;;;3.22;1.00;;;27.50;48.60;;;;;;2218444;57;21048;-72
2021/07/31 12:05:14;;;;;;;2.70;0.68;;;27.60;47.10;;;;;;2220092;57;20971;-70
2021/07/31 12:07:40;;;;;;;4.35;0.98;;;27.60;47.80;;;;;;2221088;57;21051;-73
2021/07/31 12:10:13;;;;;;;2.83;0.90;;;27.50;47.60;;;;;;2436106;56;20939;-71
2021/07/31 12:12:45;;;;;;;1.80;0.70;;;27.50;47.50;;;;;;2188602;57;21469;-71
2021/07/31 12:15:26;;;;;;;2.47;0.75;;;27.50;47.50;;;;;;2229509;57;21102;-70
2021/07/31 12:18:04;;;;;;;1.90;0.70;;;27.40;46.70;;;;;;2212608;57;21027;-73
2021/07/31 12:20:36;;;;;;;3.12;1.00;;;27.40;46.60;;;;;;2225509;56;21018;-68
2021/07/31 12:23:06;;;;;;;2.70;0.70;;;27.40;46.90;;;;;;2226979;57;20968;-67
2021/07/31 12:25:32;;;;;;;3.75;0.80;;;27.30;46.80;;;;;;2246162;56;21026;-68
2021/07/31 12:28:06;;;;;;;2.95;0.80;;;27.20;47.10;;;;;;2308233;56;21054;-68
2021/07/31 12:30:40;;;;;;;2.90;1.02;;;27.20;47.40;;;;;;2409029;56;21130;-67
2021/07/31 12:33:17;;;;;;;2.50;0.88;;;27.20;46.90;;;;;;2367486;56;21063;-68
2021/07/31 12:35:58;;;;;;;3.03;0.80;;;27.20;46.80;;;;;;2232734;57;20974;-68
2021/07/31 12:38:28;;;;;;;2.10;0.70;;;27.20;47.50;;;;;;2186501;57;20989;-69
2021/07/31 12:44:22;;;;;;;2.22;0.62;;;27.20;46.80;;;;;;2424933;56;21051;-70
2021/07/31 12:46:49;;;;;;;2.62;0.85;;;27.20;47.10;;;;;;2230892;56;21121;-70
2021/07/31 12:49:15;;;;;;;4.60;0.93;;;27.20;47.10;;;;;;2229104;57;20967;-71
2021/07/31 12:51:44;;;;;;;3.90;0.80;;;27.30;47.00;;;;;;2404941;56;21167;-70
2021/07/31 12:54:10;;;;;;;1.65;0.75;;;27.30;46.80;;;;;;2209907;57;21078;-71
2021/07/31 12:56:38;;;;;;;1.92;0.70;;;27.20;46.80;;;;;;2431037;56;21023;-70
2021/07/31 12:59:04;;;;;;;3.15;0.85;;;27.20;47.10;;;;;;2225588;57;21122;-68
2021/07/31 13:01:34;;;;;;;1.62;0.60;;;27.30;47.30;;;;;;2343296;57;21062;-71
2021/07/31 13:04:00;;;;;;;2.50;0.68;;;27.20;47.10;;;;;;2438556;56;20986;-70
2021/07/31 13:06:30;;;;;;;1.75;0.45;;;27.30;47.20;;;;;;2231184;56;20991;-67
2021/07/31 13:08:57;;;;;;;1.52;0.50;;;27.30;47.50;;;;;;2225849;57;21036;-69
2021/07/31 13:11:26;;;;;;;1.83;0.68;;;27.30;47.70;;;;;;2227701;57;21764;-67
2021/07/31 13:13:53;;;;;;;2.30;0.80;;;27.30;47.50;;;;;;2225241;57;21106;-68
2021/07/31 13:16:19;;;;;;;3.40;1.05;;;27.30;47.50;;;;;;2266325;56;20974;-69
2021/07/31 13:18:46;;;;;;;2.90;0.70;;;27.40;47.30;;;;;;2239712;56;22087;-69
2021/07/31 13:21:13;;;;;;;1.70;0.65;;;27.40;47.40;;;;;;2225539;57;21010;-70
2021/07/31 13:23:39;;;;;;;2.00;0.93;;;27.40;47.30;;;;;;2226821;57;21021;-70
2021/07/31 13:26:09;;;;;;;2.97;0.88;;;27.50;47.50;;;;;;2437945;56;21050;-69
2021/07/31 13:28:36;;;;;;;1.58;0.70;;;27.60;47.20;;;;;;2226500;57;20984;-69
2021/07/31 13:31:02;;;;;;;2.58;0.82;;;27.60;47.40;;;;;;2439858;56;21065;-70
2021/07/31 13:33:28;;;;;;;2.92;1.15;;;27.70;47.20;;;;;;2243883;56;21012;-70
2021/07/31 13:35:57;;;;;;;1.98;0.57;;;27.80;47.40;;;;;;2325415;56;20999;-72
2021/07/31 13:38:24;;;;;;;1.92;0.70;;;27.90;47.50;;;;;;2213516;57;21788;-74
2021/07/31 13:45:10;;;;;;;1.83;0.70;;;28.00;46.80;;;;;;2398412;57;20949;-68
2021/07/31 13:47:39;;;;;;;2.53;0.70;;;28.10;46.30;;;;;;2434931;56;21071;-70
2021/07/31 13:53:33;;;;;;;2.50;0.50;;;28.30;45.10;;;;;;2419718;56;20994;-71
2021/07/31 13:56:00;;;;;;;1.60;0.70;;;28.30;46.20;;;;;;2230182;57;20985;-68
2021/07/31 13:58:27;;;;;;;1.48;0.60;;;28.40;46.20;;;;;;2226098;57;20987;-70
2021/07/31 14:00:53;;;;;;;1.98;0.80;;;28.50;46.40;;;;;;2440645;56;21105;-70
2021/07/31 14:03:20;;;;;;;1.77;0.60;;;28.60;46.50;;;;;;2438914;56;21064;-69
2021/07/31 14:05:46;;;;;;;2.75;0.77;;;28.70;46.30;;;;;;2224900;57;20987;-68
2021/07/31 14:08:13;;;;;;;1.17;0.45;;;28.80;45.90;;;;;;2233015;57;21532;-70